Afton, Texas
Current Conditions -  °F | °C
As of 7:53 PM on Saturday 25 Oct 2014 (Local Time) from KCDS Reporting Station
Clear Clear  
Wind Chill: 74°   Ceiling: Unl
Heat Index: 74°   Visibility: 10mi
Dew Point: 51°   Wind: 9mph
Humidity: 45%   Direction: 170°S
Pressure: 30.04"   Gusts: NA
Location:  33.76°N, 100.82°W
Report Text: KCDS 260053Z AUTO 17008KT 10SM CLR 23/11 A3004 RMK AO2 SLP155 T02330106 $
Loading
Personal Weather Stations






























Interactive Weather Map
Tropical Storm Tracking
New forecast layout! Learn more

10-Day Weather Forecast

Advertisements
Track Severe Weather on mobile